sensor_id;sensor_type;location;lat;lon;timestamp;temperature;humidity
2112;DHT22;1062;52.538;13.400;2023-08-06T00:00:39;17.50;99.90
2112;DHT22;1062;52.538;13.400;2023-08-06T00:03:05;17.50;99.90
2112;DHT22;1062;52.538;13.400;2023-08-06T00:05:31;17.50;99.90
2112;DHT22;1062;52.538;13.400;2023-08-06T00:07:56;17.50;99.90
2112;DHT22;1062;52.538;13.400;2023-08-06T00:10:22;17.50;99.90
2112;DHT22;1062;52.538;13.400;2023-08-06T00:12:47;17.50;99.90
2112;DHT22;1062;52.538;13.400;2023-08-06T00:15:14;17.50;99.90
2112;DHT22;1062;52.538;13.400;2023-08-06T00:17:40;17.40;99.90
2112;DHT22;1062;52.538;13.400;2023-08-06T00:20:06;17.40;99.90
2112;DHT22;1062;52.538;13.400;2023-08-06T00:22:36;17.40;99.90
2112;DHT22;1062;52.538;13.400;2023-08-06T00:25:02;17.40;99.90
2112;DHT22;1062;52.538;13.400;2023-08-06T00:27:28;17.40;99.90
2112;DHT22;1062;52.538;13.400;2023-08-06T00:29:54;17.50;99.90
2112;DHT22;1062;52.538;13.400;2023-08-06T00:32:21;17.50;99.90
2112;DHT22;1062;52.538;13.400;2023-08-06T00:34:47;17.40;99.90
2112;DHT22;1062;52.538;13.400;2023-08-06T00:37:15;17.40;99.90
2112;DHT22;1062;52.538;13.400;2023-08-06T00:39:42;17.40;99.90
2112;DHT22;1062;52.538;13.400;2023-08-06T00:42:08;17.40;99.90
2112;DHT22;1062;52.538;13.400;2023-08-06T00:44:34;17.40;99.90
2112;DHT22;1062;52.538;13.400;2023-08-06T00:46:59;17.30;99.90
2112;DHT22;1062;52.538;13.400;2023-08-06T00:49:25;17.40;99.90
2112;DHT22;1062;52.538;13.400;2023-08-06T00:51:51;17.30;99.90
2112;DHT22;1062;52.538;13.400;2023-08-06T00:54:17;17.30;99.90
2112;DHT22;1062;52.538;13.400;2023-08-06T00:56:43;17.30;99.90
2112;DHT22;1062;52.538;13.400;2023-08-06T00:59:10;17.20;99.90
2112;DHT22;1062;52.538;13.400;2023-08-06T01:01:36;17.30;99.90
2112;DHT22;1062;52.538;13.400;2023-08-06T01:04:01;17.30;99.90
2112;DHT22;1062;52.538;13.400;2023-08-06T01:06:48;17.20;99.90
2112;DHT22;1062;52.538;13.400;2023-08-06T01:09:57;17.20;99.90
2112;DHT22;1062;52.538;13.400;2023-08-06T01:12:25;17.30;99.90
2112;DHT22;1062;52.538;13.400;2023-08-06T01:15:03;17.20;99.90
2112;DHT22;1062;52.538;13.400;2023-08-06T01:17:31;17.20;99.90
2112;DHT22;1062;52.538;13.400;2023-08-06T01:19:57;17.20;99.90
2112;DHT22;1062;52.538;13.400;2023-08-06T01:22:22;17.20;99.90
2112;DHT22;1062;52.538;13.400;2023-08-06T01:24:50;17.20;99.90
2112;DHT22;1062;52.538;13.400;2023-08-06T01:30:08;17.10;99.90
2112;DHT22;1062;52.538;13.400;2023-08-06T01:32:39;17.10;99.90
2112;DHT22;1062;52.538;13.400;2023-08-06T01:35:06;17.00;99.90
2112;DHT22;1062;52.538;13.400;2023-08-06T01:37:32;17.00;99.90
2112;DHT22;1062;52.538;13.400;2023-08-06T01:39:58;17.00;99.90
2112;DHT22;1062;52.538;13.400;2023-08-06T01:42:24;17.00;99.90
2112;DHT22;1062;52.538;13.400;2023-08-06T01:44:49;17.00;99.90
2112;DHT22;1062;52.538;13.400;2023-08-06T01:47:15;16.90;99.90
2112;DHT22;1062;52.538;13.400;2023-08-06T01:49:40;16.90;99.90
2112;DHT22;1062;52.538;13.400;2023-08-06T01:52:06;16.90;99.90
2112;DHT22;1062;52.538;13.400;2023-08-06T01:54:32;16.90;99.90
2112;DHT22;1062;52.538;13.400;2023-08-06T01:56:57;16.90;99.90
2112;DHT22;1062;52.538;13.400;2023-08-06T01:59:24;16.80;99.90
2112;DHT22;1062;52.538;13.400;2023-08-06T02:01:49;16.70;99.90
2112;DHT22;1062;52.538;13.400;2023-08-06T02:04:15;16.80;99.90
2112;DHT22;1062;52.538;13.400;2023-08-06T02:06:40;16.70;99.90
2112;DHT22;1062;52.538;13.400;2023-08-06T02:09:06;16.70;99.90
2112;DHT22;1062;52.538;13.400;2023-08-06T02:11:31;16.70;99.90
2112;DHT22;1062;52.538;13.400;2023-08-06T02:13:57;16.70;99.90
2112;DHT22;1062;52.538;13.400;2023-08-06T02:16:23;16.70;99.90
2112;DHT22;1062;52.538;13.400;2023-08-06T02:18:48;16.70;99.90
2112;DHT22;1062;52.538;13.400;2023-08-06T02:21:14;16.70;99.90
2112;DHT22;1062;52.538;13.400;2023-08-06T02:23:39;16.70;99.90
2112;DHT22;1062;52.538;13.400;2023-08-06T02:26:05;16.60;99.90
2112;DHT22;1062;52.538;13.400;2023-08-06T02:28:31;16.70;99.90
2112;DHT22;1062;52.538;13.400;2023-08-06T02:30:57;16.70;99.90
2112;DHT22;1062;52.538;13.400;2023-08-06T02:33:22;16.60;99.90
2112;DHT22;1062;52.538;13.400;2023-08-06T02:35:48;16.70;99.90
2112;DHT22;1062;52.538;13.400;2023-08-06T02:38:14;16.70;99.90
2112;DHT22;1062;52.538;13.400;2023-08-06T02:40:46;16.60;99.90
2112;DHT22;1062;52.538;13.400;2023-08-06T02:43:12;16.60;99.90
2112;DHT22;1062;52.538;13.400;2023-08-06T02:45:38;16.60;99.90
2112;DHT22;1062;52.538;13.400;2023-08-06T02:48:04;16.60;99.90
2112;DHT22;1062;52.538;13.400;2023-08-06T02:50:30;16.60;99.90
2112;DHT22;1062;52.538;13.400;2023-08-06T02:52:55;16.60;99.90
2112;DHT22;1062;52.538;13.400;2023-08-06T02:55:21;16.60;99.90
2112;DHT22;1062;52.538;13.400;2023-08-06T02:57:46;16.60;99.90
2112;DHT22;1062;52.538;13.400;2023-08-06T03:00:12;16.50;99.90
2112;DHT22;1062;52.538;13.400;2023-08-06T03:02:38;16.50;99.90
2112;DHT22;1062;52.538;13.400;2023-08-06T03:05:04;16.50;99.90
2112;DHT22;1062;52.538;13.400;2023-08-06T03:07:31;16.50;99.90
2112;DHT22;1062;52.538;13.400;2023-08-06T03:09:58;16.50;99.90
2112;DHT22;1062;52.538;13.400;2023-08-06T03:12:26;16.50;99.90
2112;DHT22;1062;52.538;13.400;2023-08-06T03:14:51;16.50;99.90
2112;DHT22;1062;52.538;13.400;2023-08-06T03:17:17;16.40;99.90
2112;DHT22;1062;52.538;13.400;2023-08-06T03:19:43;16.40;99.90
2112;DHT22;1062;52.538;13.400;2023-08-06T03:22:08;16.30;99.90
2112;DHT22;1062;52.538;13.400;2023-08-06T03:24:34;16.20;99.90
2112;DHT22;1062;52.538;13.400;2023-08-06T03:26:59;16.20;99.90
2112;DHT22;1062;52.538;13.400;2023-08-06T03:29:25;16.20;99.90
2112;DHT22;1062;52.538;13.400;2023-08-06T03:31:52;16.10;99.90
2112;DHT22;1062;52.538;13.400;2023-08-06T03:34:17;16.00;99.90
2112;DHT22;1062;52.538;13.400;2023-08-06T03:36:43;16.00;99.90
2112;DHT22;1062;52.538;13.400;2023-08-06T03:39:08;16.00;99.90
2112;DHT22;1062;52.538;13.400;2023-08-06T03:41:34;16.00;99.90
2112;DHT22;1062;52.538;13.400;2023-08-06T03:44:00;16.00;99.90
2112;DHT22;1062;52.538;13.400;2023-08-06T03:46:28;16.00;99.90
2112;DHT22;1062;52.538;13.400;2023-08-06T03:48:53;16.00;99.90
2112;DHT22;1062;52.538;13.400;2023-08-06T03:51:19;16.00;99.90
2112;DHT22;1062;52.538;13.400;2023-08-06T03:53:44;16.00;99.90
2112;DHT22;1062;52.538;13.400;2023-08-06T03:56:10;16.00;99.90
2112;DHT22;1062;52.538;13.400;2023-08-06T03:58:36;16.00;99.90
2112;DHT22;1062;52.538;13.400;2023-08-06T04:01:02;16.00;99.90
2112;DHT22;1062;52.538;13.400;2023-08-06T04:03:28;16.00;99.90
2112;DHT22;1062;52.538;13.400;2023-08-06T04:05:54;16.00;99.90
2112;DHT22;1062;52.538;13.400;2023-08-06T04:08:19;16.00;99.90
2112;DHT22;1062;52.538;13.400;2023-08-06T04:10:45;16.00;99.90
2112;DHT22;1062;52.538;13.400;2023-08-06T04:13:11;16.00;99.90
2112;DHT22;1062;52.538;13.400;2023-08-06T04:15:36;16.00;99.90
2112;DHT22;1062;52.538;13.400;2023-08-06T04:18:02;16.00;99.90
2112;DHT22;1062;52.538;13.400;2023-08-06T04:20:27;16.00;99.90
2112;DHT22;1062;52.538;13.400;2023-08-06T04:22:56;16.00;99.90
2112;DHT22;1062;52.538;13.400;2023-08-06T04:25:22;16.10;99.90
2112;DHT22;1062;52.538;13.400;2023-08-06T04:27:48;16.00;99.90
2112;DHT22;1062;52.538;13.400;2023-08-06T04:30:14;16.00;99.90
2112;DHT22;1062;52.538;13.400;2023-08-06T04:32:40;16.00;99.90
2112;DHT22;1062;52.538;13.400;2023-08-06T04:35:06;16.00;99.90
2112;DHT22;1062;52.538;13.400;2023-08-06T04:37:32;16.00;99.90
2112;DHT22;1062;52.538;13.400;2023-08-06T04:39:57;16.00;99.90
2112;DHT22;1062;52.538;13.400;2023-08-06T04:42:23;16.00;99.90
2112;DHT22;1062;52.538;13.400;2023-08-06T04:44:49;16.00;99.90
2112;DHT22;1062;52.538;13.400;2023-08-06T04:47:14;16.00;99.90
2112;DHT22;1062;52.538;13.400;2023-08-06T04:49:40;16.00;99.90
2112;DHT22;1062;52.538;13.400;2023-08-06T04:52:06;16.00;99.90
2112;DHT22;1062;52.538;13.400;2023-08-06T04:54:31;16.10;99.90
2112;DHT22;1062;52.538;13.400;2023-08-06T04:56:57;16.10;99.90
2112;DHT22;1062;52.538;13.400;2023-08-06T04:59:22;16.10;99.90
2112;DHT22;1062;52.538;13.400;2023-08-06T05:01:48;16.10;99.90
2112;DHT22;1062;52.538;13.400;2023-08-06T05:04:14;16.10;99.90
2112;DHT22;1062;52.538;13.400;2023-08-06T05:06:39;16.10;99.90
2112;DHT22;1062;52.538;13.400;2023-08-06T05:09:05;16.10;99.90
2112;DHT22;1062;52.538;13.400;2023-08-06T05:11:31;16.20;99.90
2112;DHT22;1062;52.538;13.400;2023-08-06T05:13:57;16.20;99.90
2112;DHT22;1062;52.538;13.400;2023-08-06T05:16:23;16.10;99.90
2112;DHT22;1062;52.538;13.400;2023-08-06T05:18:49;16.20;99.90
2112;DHT22;1062;52.538;13.400;2023-08-06T05:21:14;16.20;99.90
2112;DHT22;1062;52.538;13.400;2023-08-06T05:23:42;16.30;99.90
2112;DHT22;1062;52.538;13.400;2023-08-06T05:26:07;16.30;99.90
2112;DHT22;1062;52.538;13.400;2023-08-06T05:28:34;16.30;99.90
2112;DHT22;1062;52.538;13.400;2023-08-06T05:31:05;16.30;99.90
2112;DHT22;1062;52.538;13.400;2023-08-06T05:33:31;16.30;99.90
2112;DHT22;1062;52.538;13.400;2023-08-06T05:35:57;16.30;99.90
2112;DHT22;1062;52.538;13.400;2023-08-06T05:38:23;16.30;99.90
2112;DHT22;1062;52.538;13.400;2023-08-06T05:40:48;16.40;99.90
2112;DHT22;1062;52.538;13.400;2023-08-06T05:43:14;16.40;99.90
2112;DHT22;1062;52.538;13.400;2023-08-06T05:45:44;16.50;99.90
2112;DHT22;1062;52.538;13.400;2023-08-06T05:48:10;16.60;99.90
2112;DHT22;1062;52.538;13.400;2023-08-06T05:50:36;16.60;99.90
2112;DHT22;1062;52.538;13.400;2023-08-06T05:53:01;16.60;99.90
2112;DHT22;1062;52.538;13.400;2023-08-06T05:55:27;16.70;99.90
2112;DHT22;1062;52.538;13.400;2023-08-06T05:57:53;16.70;99.90
2112;DHT22;1062;52.538;13.400;2023-08-06T06:00:19;16.80;99.90
2112;DHT22;1062;52.538;13.400;2023-08-06T06:02:45;16.70;99.90
2112;DHT22;1062;52.538;13.400;2023-08-06T06:05:11;16.70;99.90
2112;DHT22;1062;52.538;13.400;2023-08-06T06:07:36;16.70;99.90
2112;DHT22;1062;52.538;13.400;2023-08-06T06:10:02;16.60;99.90
2112;DHT22;1062;52.538;13.400;2023-08-06T06:12:28;16.70;99.90
2112;DHT22;1062;52.538;13.400;2023-08-06T06:14:54;16.70;99.90
2112;DHT22;1062;52.538;13.400;2023-08-06T06:17:20;16.80;99.90
2112;DHT22;1062;52.538;13.400;2023-08-06T06:19:45;16.90;99.90
2112;DHT22;1062;52.538;13.400;2023-08-06T06:22:12;16.90;99.90
2112;DHT22;1062;52.538;13.400;2023-08-06T06:24:37;16.90;99.90
2112;DHT22;1062;52.538;13.400;2023-08-06T06:27:03;16.80;99.90
2112;DHT22;1062;52.538;13.400;2023-08-06T06:29:29;16.80;99.90
2112;DHT22;1062;52.538;13.400;2023-08-06T06:31:55;16.80;99.90
2112;DHT22;1062;52.538;13.400;2023-08-06T06:34:20;16.90;99.90
2112;DHT22;1062;52.538;13.400;2023-08-06T06:36:46;16.90;99.90
2112;DHT22;1062;52.538;13.400;2023-08-06T06:39:12;16.90;99.90
2112;DHT22;1062;52.538;13.400;2023-08-06T06:41:37;16.90;99.90
2112;DHT22;1062;52.538;13.400;2023-08-06T06:44:03;16.90;99.90
2112;DHT22;1062;52.538;13.400;2023-08-06T06:46:28;16.90;99.90
2112;DHT22;1062;52.538;13.400;2023-08-06T06:48:54;16.90;99.90
2112;DHT22;1062;52.538;13.400;2023-08-06T06:51:20;17.10;99.90
2112;DHT22;1062;52.538;13.400;2023-08-06T06:53:45;17.10;99.90
2112;DHT22;1062;52.538;13.400;2023-08-06T06:56:11;17.10;99.90
2112;DHT22;1062;52.538;13.400;2023-08-06T06:58:36;17.10;99.90
2112;DHT22;1062;52.538;13.400;2023-08-06T07:01:04;17.10;99.90
2112;DHT22;1062;52.538;13.400;2023-08-06T07:03:29;17.30;99.90
2112;DHT22;1062;52.538;13.400;2023-08-06T07:05:58;17.30;99.90
2112;DHT22;1062;52.538;13.400;2023-08-06T07:08:25;17.40;99.90
2112;DHT22;1062;52.538;13.400;2023-08-06T07:10:50;17.50;99.90
2112;DHT22;1062;52.538;13.400;2023-08-06T07:13:16;17.40;99.90
2112;DHT22;1062;52.538;13.400;2023-08-06T07:15:44;17.50;99.90
2112;DHT22;1062;52.538;13.400;2023-08-06T07:18:10;17.60;99.90
2112;DHT22;1062;52.538;13.400;2023-08-06T07:20:35;17.80;99.90
2112;DHT22;1062;52.538;13.400;2023-08-06T07:23:01;17.70;99.90
2112;DHT22;1062;52.538;13.400;2023-08-06T07:25:27;17.60;99.90
2112;DHT22;1062;52.538;13.400;2023-08-06T07:27:53;17.70;99.90
2112;DHT22;1062;52.538;13.400;2023-08-06T07:30:18;17.70;99.90
2112;DHT22;1062;52.538;13.400;2023-08-06T07:32:44;17.70;99.90
2112;DHT22;1062;52.538;13.400;2023-08-06T07:35:09;17.80;99.90
2112;DHT22;1062;52.538;13.400;2023-08-06T07:37:38;17.80;99.90
2112;DHT22;1062;52.538;13.400;2023-08-06T07:40:06;17.90;99.90
2112;DHT22;1062;52.538;13.400;2023-08-06T07:42:32;17.90;99.90
2112;DHT22;1062;52.538;13.400;2023-08-06T07:44:58;17.90;99.90
2112;DHT22;1062;52.538;13.400;2023-08-06T07:47:24;17.90;99.90
2112;DHT22;1062;52.538;13.400;2023-08-06T07:49:49;17.90;99.90
2112;DHT22;1062;52.538;13.400;2023-08-06T07:52:15;17.90;99.90
2112;DHT22;1062;52.538;13.400;2023-08-06T07:54:41;18.00;99.90
2112;DHT22;1062;52.538;13.400;2023-08-06T07:57:07;18.10;99.90
2112;DHT22;1062;52.538;13.400;2023-08-06T07:59:36;18.00;99.90
2112;DHT22;1062;52.538;13.400;2023-08-06T08:02:02;18.00;99.90
2112;DHT22;1062;52.538;13.400;2023-08-06T08:04:27;18.10;99.90
2112;DHT22;1062;52.538;13.400;2023-08-06T08:06:53;18.00;99.90
2112;DHT22;1062;52.538;13.400;2023-08-06T08:09:19;18.00;99.90
2112;DHT22;1062;52.538;13.400;2023-08-06T08:11:44;18.00;99.90
2112;DHT22;1062;52.538;13.400;2023-08-06T08:14:10;18.10;99.90
2112;DHT22;1062;52.538;13.400;2023-08-06T08:16:35;18.00;99.90
2112;DHT22;1062;52.538;13.400;2023-08-06T08:19:01;18.00;99.90
2112;DHT22;1062;52.538;13.400;2023-08-06T08:21:28;17.90;99.90
2112;DHT22;1062;52.538;13.400;2023-08-06T08:23:54;18.00;99.90
2112;DHT22;1062;52.538;13.400;2023-08-06T08:26:19;18.00;99.90
2112;DHT22;1062;52.538;13.400;2023-08-06T08:28:45;18.10;99.90
2112;DHT22;1062;52.538;13.400;2023-08-06T08:31:11;18.10;99.90
2112;DHT22;1062;52.538;13.400;2023-08-06T08:33:40;18.20;99.90
2112;DHT22;1062;52.538;13.400;2023-08-06T08:36:06;18.20;99.90
2112;DHT22;1062;52.538;13.400;2023-08-06T08:38:31;18.30;99.90
2112;DHT22;1062;52.538;13.400;2023-08-06T08:40:57;18.40;99.90
2112;DHT22;1062;52.538;13.400;2023-08-06T08:43:23;18.50;99.90
2112;DHT22;1062;52.538;13.400;2023-08-06T08:45:53;18.50;99.90
2112;DHT22;1062;52.538;13.400;2023-08-06T08:48:21;18.60;99.90
2112;DHT22;1062;52.538;13.400;2023-08-06T08:50:49;18.40;99.90
2112;DHT22;1062;52.538;13.400;2023-08-06T08:53:16;18.50;99.90
2112;DHT22;1062;52.538;13.400;2023-08-06T08:55:43;18.60;99.90
2112;DHT22;1062;52.538;13.400;2023-08-06T08:58:10;18.70;99.90
2112;DHT22;1062;52.538;13.400;2023-08-06T09:00:35;18.60;99.90
2112;DHT22;1062;52.538;13.400;2023-08-06T09:03:02;18.50;99.90
2112;DHT22;1062;52.538;13.400;2023-08-06T09:05:32;18.30;99.90
2112;DHT22;1062;52.538;13.400;2023-08-06T09:08:02;18.30;99.90
2112;DHT22;1062;52.538;13.400;2023-08-06T09:10:28;18.50;99.90
2112;DHT22;1062;52.538;13.400;2023-08-06T09:12:55;18.50;99.90
2112;DHT22;1062;52.538;13.400;2023-08-06T09:15:24;18.30;99.90
2112;DHT22;1062;52.538;13.400;2023-08-06T09:17:51;18.20;99.90
2112;DHT22;1062;52.538;13.400;2023-08-06T09:20:17;18.30;99.90
2112;DHT22;1062;52.538;13.400;2023-08-06T09:22:43;18.40;99.90
2112;DHT22;1062;52.538;13.400;2023-08-06T09:25:09;18.20;99.90
2112;DHT22;1062;52.538;13.400;2023-08-06T09:27:38;18.30;99.90
2112;DHT22;1062;52.538;13.400;2023-08-06T09:30:06;18.60;99.90
2112;DHT22;1062;52.538;13.400;2023-08-06T09:32:48;18.70;99.90
2112;DHT22;1062;52.538;13.400;2023-08-06T09:35:17;18.80;99.90
2112;DHT22;1062;52.538;13.400;2023-08-06T09:37:43;18.80;99.90
2112;DHT22;1062;52.538;13.400;2023-08-06T09:40:39;18.90;99.90
2112;DHT22;1062;52.538;13.400;2023-08-06T09:43:04;18.90;99.90
2112;DHT22;1062;52.538;13.400;2023-08-06T09:45:35;18.90;99.90
2112;DHT22;1062;52.538;13.400;2023-08-06T09:48:05;18.80;99.90
2112;DHT22;1062;52.538;13.400;2023-08-06T09:50:34;18.80;99.90
2112;DHT22;1062;52.538;13.400;2023-08-06T09:53:02;19.00;99.90
2112;DHT22;1062;52.538;13.400;2023-08-06T09:55:28;18.90;99.90
2112;DHT22;1062;52.538;13.400;2023-08-06T09:57:55;19.00;99.90
2112;DHT22;1062;52.538;13.400;2023-08-06T10:00:21;18.70;99.90
2112;DHT22;1062;52.538;13.400;2023-08-06T10:02:48;18.50;99.90
2112;DHT22;1062;52.538;13.400;2023-08-06T10:05:15;18.80;99.90
2112;DHT22;1062;52.538;13.400;2023-08-06T10:07:43;18.70;99.90
2112;DHT22;1062;52.538;13.400;2023-08-06T10:10:10;18.80;99.90
2112;DHT22;1062;52.538;13.400;2023-08-06T10:13:02;18.60;99.90
2112;DHT22;1062;52.538;13.400;2023-08-06T10:15:31;18.40;99.90
2112;DHT22;1062;52.538;13.400;2023-08-06T10:17:57;18.60;99.90
2112;DHT22;1062;52.538;13.400;2023-08-06T10:20:24;18.80;99.90
2112;DHT22;1062;52.538;13.400;2023-08-06T10:23:04;18.90;99.90
2112;DHT22;1062;52.538;13.400;2023-08-06T10:25:32;19.10;99.90
2112;DHT22;1062;52.538;13.400;2023-08-06T10:28:07;19.10;99.90
2112;DHT22;1062;52.538;13.400;2023-08-06T10:30:33;19.20;99.90
2112;DHT22;1062;52.538;13.400;2023-08-06T10:33:01;19.00;99.90
2112;DHT22;1062;52.538;13.400;2023-08-06T10:35:33;18.70;99.90
2112;DHT22;1062;52.538;13.400;2023-08-06T10:38:07;18.80;99.90
2112;DHT22;1062;52.538;13.400;2023-08-06T10:40:33;18.90;99.90
2112;DHT22;1062;52.538;13.400;2023-08-06T10:43:00;18.70;99.90
2112;DHT22;1062;52.538;13.400;2023-08-06T10:45:26;18.80;99.90
2112;DHT22;1062;52.538;13.400;2023-08-06T10:47:54;18.90;99.90
2112;DHT22;1062;52.538;13.400;2023-08-06T10:50:21;18.90;99.90
2112;DHT22;1062;52.538;13.400;2023-08-06T10:52:47;18.90;99.90
2112;DHT22;1062;52.538;13.400;2023-08-06T10:55:22;18.90;99.90
2112;DHT22;1062;52.538;13.400;2023-08-06T10:57:49;18.90;99.90
2112;DHT22;1062;52.538;13.400;2023-08-06T11:00:15;18.90;99.90
2112;DHT22;1062;52.538;13.400;2023-08-06T11:02:41;18.70;99.90
2112;DHT22;1062;52.538;13.400;2023-08-06T11:05:10;19.00;99.90
2112;DHT22;1062;52.538;13.400;2023-08-06T11:07:37;19.10;99.90
2112;DHT22;1062;52.538;13.400;2023-08-06T11:10:04;19.20;99.90
2112;DHT22;1062;52.538;13.400;2023-08-06T11:12:31;19.10;99.90
2112;DHT22;1062;52.538;13.400;2023-08-06T11:14:57;19.20;99.90
2112;DHT22;1062;52.538;13.400;2023-08-06T11:17:23;19.10;99.90
2112;DHT22;1062;52.538;13.400;2023-08-06T11:19:48;19.10;99.90
2112;DHT22;1062;52.538;13.400;2023-08-06T11:22:14;18.90;99.90
2112;DHT22;1062;52.538;13.400;2023-08-06T11:24:40;18.90;99.90
2112;DHT22;1062;52.538;13.400;2023-08-06T11:27:16;18.80;99.90
2112;DHT22;1062;52.538;13.400;2023-08-06T11:29:42;18.90;99.90
2112;DHT22;1062;52.538;13.400;2023-08-06T11:32:08;18.80;99.90
2112;DHT22;1062;52.538;13.400;2023-08-06T11:34:35;18.90;99.90
2112;DHT22;1062;52.538;13.400;2023-08-06T11:37:02;19.20;99.90
2112;DHT22;1062;52.538;13.400;2023-08-06T11:39:28;19.20;99.90
2112;DHT22;1062;52.538;13.400;2023-08-06T11:41:53;19.10;99.90
2112;DHT22;1062;52.538;13.400;2023-08-06T11:44:20;19.00;99.90
2112;DHT22;1062;52.538;13.400;2023-08-06T11:46:58;19.10;99.90
2112;DHT22;1062;52.538;13.400;2023-08-06T11:49:42;19.20;99.90
2112;DHT22;1062;52.538;13.400;2023-08-06T11:52:21;19.20;99.90
2112;DHT22;1062;52.538;13.400;2023-08-06T11:55:03;18.90;99.90
2112;DHT22;1062;52.538;13.400;2023-08-06T11:57:30;18.60;99.90
2112;DHT22;1062;52.538;13.400;2023-08-06T12:00:11;18.80;99.90
2112;DHT22;1062;52.538;13.400;2023-08-06T12:02:39;19.10;99.90
2112;DHT22;1062;52.538;13.400;2023-08-06T12:05:17;19.40;99.90
2112;DHT22;1062;52.538;13.400;2023-08-06T12:07:50;19.50;99.90
2112;DHT22;1062;52.538;13.400;2023-08-06T12:10:16;19.50;99.90
2112;DHT22;1062;52.538;13.400;2023-08-06T12:12:42;19.30;99.90
2112;DHT22;1062;52.538;13.400;2023-08-06T12:15:09;19.60;99.90
2112;DHT22;1062;52.538;13.400;2023-08-06T12:17:36;19.60;99.90
2112;DHT22;1062;52.538;13.400;2023-08-06T12:20:02;19.50;99.90
2112;DHT22;1062;52.538;13.400;2023-08-06T12:22:30;19.10;99.90
2112;DHT22;1062;52.538;13.400;2023-08-06T12:25:00;19.20;99.90
2112;DHT22;1062;52.538;13.400;2023-08-06T12:27:26;19.50;99.90
2112;DHT22;1062;52.538;13.400;2023-08-06T12:29:52;19.30;99.90
2112;DHT22;1062;52.538;13.400;2023-08-06T12:32:17;19.20;99.90
2112;DHT22;1062;52.538;13.400;2023-08-06T12:34:44;19.20;99.90
2112;DHT22;1062;52.538;13.400;2023-08-06T12:37:10;19.10;99.90
2112;DHT22;1062;52.538;13.400;2023-08-06T12:39:36;19.00;99.90
2112;DHT22;1062;52.538;13.400;2023-08-06T12:42:03;19.00;99.90
2112;DHT22;1062;52.538;13.400;2023-08-06T12:44:29;19.10;99.90
2112;DHT22;1062;52.538;13.400;2023-08-06T12:46:55;18.80;99.90
2112;DHT22;1062;52.538;13.400;2023-08-06T12:49:21;19.00;99.90
2112;DHT22;1062;52.538;13.400;2023-08-06T12:51:49;19.20;99.90
2112;DHT22;1062;52.538;13.400;2023-08-06T12:54:19;19.30;99.90
2112;DHT22;1062;52.538;13.400;2023-08-06T12:56:46;19.30;99.90
2112;DHT22;1062;52.538;13.400;2023-08-06T12:59:13;19.20;99.90
2112;DHT22;1062;52.538;13.400;2023-08-06T13:01:39;19.20;99.90
2112;DHT22;1062;52.538;13.400;2023-08-06T13:04:04;19.10;99.90
2112;DHT22;1062;52.538;13.400;2023-08-06T13:06:30;19.10;99.90
2112;DHT22;1062;52.538;13.400;2023-08-06T13:08:57;19.10;99.90
2112;DHT22;1062;52.538;13.400;2023-08-06T13:11:23;19.10;99.90
2112;DHT22;1062;52.538;13.400;2023-08-06T13:13:48;19.00;99.90
2112;DHT22;1062;52.538;13.400;2023-08-06T13:16:14;19.00;99.90
2112;DHT22;1062;52.538;13.400;2023-08-06T13:18:39;19.10;99.90
2112;DHT22;1062;52.538;13.400;2023-08-06T13:21:05;19.10;99.90
2112;DHT22;1062;52.538;13.400;2023-08-06T13:23:30;19.20;99.90
2112;DHT22;1062;52.538;13.400;2023-08-06T13:25:56;18.90;99.90
2112;DHT22;1062;52.538;13.400;2023-08-06T13:28:22;19.10;99.90
2112;DHT22;1062;52.538;13.400;2023-08-06T13:30:47;19.10;99.90
2112;DHT22;1062;52.538;13.400;2023-08-06T13:33:13;19.20;99.90
2112;DHT22;1062;52.538;13.400;2023-08-06T13:35:39;19.10;99.90
2112;DHT22;1062;52.538;13.400;2023-08-06T13:38:04;19.10;99.90
2112;DHT22;1062;52.538;13.400;2023-08-06T13:40:32;19.00;99.90
2112;DHT22;1062;52.538;13.400;2023-08-06T13:42:58;19.10;99.90
2112;DHT22;1062;52.538;13.400;2023-08-06T13:45:23;19.00;99.90
2112;DHT22;1062;52.538;13.400;2023-08-06T13:47:49;18.70;99.90
2112;DHT22;1062;52.538;13.400;2023-08-06T13:50:15;18.80;99.90
2112;DHT22;1062;52.538;13.400;2023-08-06T13:52:41;18.80;99.90
2112;DHT22;1062;52.538;13.400;2023-08-06T13:55:07;18.90;99.90
2112;DHT22;1062;52.538;13.400;2023-08-06T13:57:34;18.80;99.90
2112;DHT22;1062;52.538;13.400;2023-08-06T13:59:59;18.80;99.90
2112;DHT22;1062;52.538;13.400;2023-08-06T14:02:25;18.60;99.90
2112;DHT22;1062;52.538;13.400;2023-08-06T14:04:52;18.50;99.90
2112;DHT22;1062;52.538;13.400;2023-08-06T14:07:18;18.20;99.90
2112;DHT22;1062;52.538;13.400;2023-08-06T14:09:44;18.20;99.90
2112;DHT22;1062;52.538;13.400;2023-08-06T14:12:09;18.10;99.90
2112;DHT22;1062;52.538;13.400;2023-08-06T14:14:35;18.20;99.90
2112;DHT22;1062;52.538;13.400;2023-08-06T14:17:01;18.10;99.90
2112;DHT22;1062;52.538;13.400;2023-08-06T14:19:27;18.10;99.90
2112;DHT22;1062;52.538;13.400;2023-08-06T14:21:54;18.10;99.90
2112;DHT22;1062;52.538;13.400;2023-08-06T14:24:20;18.20;99.90
2112;DHT22;1062;52.538;13.400;2023-08-06T14:26:46;18.20;99.90
2112;DHT22;1062;52.538;13.400;2023-08-06T14:29:12;18.20;99.90
2112;DHT22;1062;52.538;13.400;2023-08-06T14:31:39;18.00;99.90
2112;DHT22;1062;52.538;13.400;2023-08-06T14:34:04;18.10;99.90
2112;DHT22;1062;52.538;13.400;2023-08-06T14:36:30;18.20;99.90
2112;DHT22;1062;52.538;13.400;2023-08-06T14:38:56;18.10;99.90
2112;DHT22;1062;52.538;13.400;2023-08-06T14:41:21;18.00;99.90
2112;DHT22;1062;52.538;13.400;2023-08-06T14:43:47;18.00;99.90
2112;DHT22;1062;52.538;13.400;2023-08-06T14:46:12;17.90;99.90
2112;DHT22;1062;52.538;13.400;2023-08-06T14:48:38;17.90;99.90
2112;DHT22;1062;52.538;13.400;2023-08-06T14:51:04;17.90;99.90
2112;DHT22;1062;52.538;13.400;2023-08-06T14:53:30;17.90;99.90
2112;DHT22;1062;52.538;13.400;2023-08-06T14:55:56;18.00;99.90
2112;DHT22;1062;52.538;13.400;2023-08-06T14:58:21;18.00;99.90
2112;DHT22;1062;52.538;13.400;2023-08-06T15:00:47;18.00;99.90
2112;DHT22;1062;52.538;13.400;2023-08-06T15:03:12;17.90;99.90
2112;DHT22;1062;52.538;13.400;2023-08-06T15:05:38;17.90;99.90
2112;DHT22;1062;52.538;13.400;2023-08-06T15:08:03;17.90;99.90
2112;DHT22;1062;52.538;13.400;2023-08-06T15:10:29;17.80;99.90
2112;DHT22;1062;52.538;13.400;2023-08-06T15:12:55;17.70;99.90
2112;DHT22;1062;52.538;13.400;2023-08-06T15:15:21;17.60;99.90
2112;DHT22;1062;52.538;13.400;2023-08-06T15:17:47;17.60;99.90
2112;DHT22;1062;52.538;13.400;2023-08-06T15:20:13;17.70;99.90
2112;DHT22;1062;52.538;13.400;2023-08-06T15:22:39;17.60;99.90
2112;DHT22;1062;52.538;13.400;2023-08-06T15:25:05;17.70;99.90
2112;DHT22;1062;52.538;13.400;2023-08-06T15:27:30;17.70;99.90
2112;DHT22;1062;52.538;13.400;2023-08-06T15:29:58;17.80;99.90
2112;DHT22;1062;52.538;13.400;2023-08-06T15:32:23;17.80;99.90
2112;DHT22;1062;52.538;13.400;2023-08-06T15:35:16;17.80;99.90
2112;DHT22;1062;52.538;13.400;2023-08-06T15:37:41;17.80;99.90
2112;DHT22;1062;52.538;13.400;2023-08-06T15:40:07;17.70;99.90
2112;DHT22;1062;52.538;13.400;2023-08-06T15:42:33;17.70;99.90
2112;DHT22;1062;52.538;13.400;2023-08-06T15:44:59;17.80;99.90